Terminal Aerodrome Forecast
Issued by NWS

Home | Current Version | Previous Version | Graphics & Text | Print | Product List | Glossary On
Versions: 1 2 3 4 5 6 7 8 9 10 11 12
000
FTUS43 KOAX 081733
TAFCDR
TAF
KCDR 081733Z 0818/0918 VRB05KT P6SM SKC
     FM090000 15006KT P6SM SCT120 BKN200
     FM090700 12005KT P6SM -SN BKN050 OVC100
     FM091300 04005KT P6SM BKN050 OVC100=

USA.gov is the U.S. government's official web portal to all federal, state and local government web resources and services.